Time;durP1;ratioP1;P1;durP2;ratioP2;P2;SDS_P1;SDS_P2;PMS_P1;PMS_P2;Temp;Humidity;BMP_temperature;BMP_pressure;BME280_temperature;BME280_humidity;BME280_pressure;Samples;Min_cycle;Max_cycle;Signal;HPM_P1;HPM_P2
2023/07/29 00:00:21;;;;;;;10.23;7.70;;;564.10;2432.00;;;;;;5079461;28;20032;-71
2023/07/29 00:02:47;;;;;;;12.88;8.07;;;564.00;2432.00;;;;;;5080782;28;20055;-72
2023/07/29 00:05:13;;;;;;;12.23;7.70;;;564.00;2432.00;;;;;;5081926;28;20033;-72
2023/07/29 00:07:38;;;;;;;11.32;8.32;;;563.90;2432.00;;;;;;5088616;28;20036;-75
2023/07/29 00:10:04;;;;;;;10.38;8.45;;;563.80;2432.00;;;;;;5082730;28;20032;-72
2023/07/29 00:12:30;;;;;;;9.68;8.00;;;563.60;2432.00;;;;;;5079875;28;20016;-71
2023/07/29 00:14:56;;;;;;;10.50;7.90;;;563.50;2432.00;;;;;;5079605;28;20035;-71
2023/07/29 00:17:21;;;;;;;11.65;9.30;;;563.50;2432.00;;;;;;5083302;28;20024;-71
2023/07/29 00:19:47;;;;;;;9.32;7.47;;;563.40;2432.00;;;;;;5080552;28;20100;-71
2023/07/29 00:22:13;;;;;;;12.70;8.18;;;563.40;2432.00;;;;;;5078479;28;20363;-72
2023/07/29 00:24:39;;;;;;;9.65;8.02;;;563.30;2432.00;;;;;;5087553;28;20012;-71
2023/07/29 00:27:05;;;;;;;11.27;8.55;;;563.20;2432.00;;;;;;5084311;28;20035;-71
2023/07/29 00:29:31;;;;;;;12.40;8.43;;;563.20;2432.00;;;;;;5080502;28;20032;-72
2023/07/29 00:31:56;;;;;;;10.43;8.45;;;563.20;2432.00;;;;;;5084184;28;20024;-72
2023/07/29 00:34:22;;;;;;;11.80;8.00;;;563.30;2432.00;;;;;;5082657;28;20033;-72
2023/07/29 00:36:48;;;;;;;10.75;8.18;;;563.50;2432.00;;;;;;5082863;28;20445;-72
2023/07/29 00:39:13;;;;;;;11.65;7.80;;;563.60;2432.00;;;;;;5075300;28;20115;-72
2023/07/29 00:41:40;;;;;;;12.10;7.65;;;563.70;2432.00;;;;;;5079929;28;20466;-74
2023/07/29 00:44:05;;;;;;;9.50;7.57;;;563.90;2432.00;;;;;;5079173;28;20029;-71
2023/07/29 00:46:34;;;;;;;12.65;7.88;;;563.90;2432.00;;;;;;5075528;28;20476;-71
2023/07/29 00:49:00;;;;;;;13.57;7.68;;;563.90;2432.00;;;;;;5076123;28;20401;-73
2023/07/29 00:51:26;;;;;;;9.40;7.53;;;564.00;2432.00;;;;;;5082821;28;20024;-71
2023/07/29 00:53:52;;;;;;;12.40;7.47;;;564.00;2432.00;;;;;;5080154;28;20497;-71
2023/07/29 00:56:18;;;;;;;9.23;8.05;;;564.00;2432.00;;;;;;5076438;28;20044;-71
2023/07/29 00:58:45;;;;;;;14.73;7.88;;;564.00;2432.00;;;;;;5087042;28;20385;-71
2023/07/29 01:01:11;;;;;;;11.55;7.95;;;564.00;2432.00;;;;;;5075354;28;20115;-72
2023/07/29 01:03:37;;;;;;;13.07;8.50;;;563.90;2432.00;;;;;;5083988;28;20027;-71
2023/07/29 01:06:18;;;;;;;9.30;7.60;;;563.80;2432.00;;;;;;5086894;28;20063;-71
2023/07/29 01:08:55;;;;;;;14.73;8.07;;;563.60;2432.00;;;;;;5078846;28;20087;-73
2023/07/29 01:11:30;;;;;;;9.90;7.78;;;563.50;2432.00;;;;;;5081637;28;20025;-72
2023/07/29 01:14:04;;;;;;;12.15;7.97;;;563.60;2432.00;;;;;;5078821;28;20056;-71
2023/07/29 01:16:40;;;;;;;13.48;8.07;;;563.60;2432.00;;;;;;5083273;28;20016;-71
2023/07/29 01:19:09;;;;;;;9.95;7.50;;;563.60;2432.00;;;;;;5074089;28;20482;-72
2023/07/29 01:21:37;;;;;;;17.05;8.57;;;563.50;2432.00;;;;;;5078313;28;20036;-71
2023/07/29 01:24:02;;;;;;;9.25;8.00;;;563.50;2432.00;;;;;;5078522;28;20051;-71
2023/07/29 01:26:29;;;;;;;15.80;7.72;;;563.40;2432.00;;;;;;5073522;28;20024;-72
2023/07/29 01:28:56;;;;;;;11.82;7.30;;;563.40;2432.00;;;;;;5083802;28;20028;-71
2023/07/29 01:31:35;;;;;;;22.60;8.80;;;563.50;2432.00;;;;;;5078092;28;20476;-72
2023/07/29 01:34:18;;;;;;;9.07;6.97;;;563.60;2432.00;;;;;;5076918;28;20057;-71
2023/07/29 01:36:46;;;;;;;9.38;6.72;;;563.60;2432.00;;;;;;5075855;28;20497;-72
2023/07/29 01:39:14;;;;;;;10.65;7.32;;;563.60;2432.00;;;;;;5068654;28;20040;-71
2023/07/29 01:41:40;;;;;;;14.82;8.23;;;563.60;2432.00;;;;;;5077208;28;20400;-75
2023/07/29 01:44:06;;;;;;;9.23;7.25;;;563.30;2432.00;;;;;;5077899;28;20051;-71
2023/07/29 01:46:37;;;;;;;10.90;7.30;;;563.30;2432.00;;;;;;5075724;28;20469;-71
2023/07/29 01:49:02;;;;;;;9.85;8.20;;;563.30;2432.00;;;;;;5077975;28;20580;-72
2023/07/29 01:51:28;;;;;;;13.02;7.20;;;563.30;2432.00;;;;;;5076298;28;20024;-71
2023/07/29 01:53:55;;;;;;;10.80;7.38;;;563.30;2432.00;;;;;;5084512;28;20047;-71
2023/07/29 01:56:21;;;;;;;7.97;6.68;;;563.40;2432.00;;;;;;5083812;28;20081;-71
2023/07/29 01:58:46;;;;;;;10.32;7.28;;;563.40;2432.00;;;;;;5077518;28;20028;-72
2023/07/29 02:01:12;;;;;;;15.85;7.32;;;563.30;2432.00;;;;;;5081442;28;20020;-72
2023/07/29 02:03:38;;;;;;;9.80;6.70;;;563.30;2432.00;;;;;;5079040;28;20027;-72
2023/07/29 02:06:04;;;;;;;10.35;7.18;;;563.30;2432.00;;;;;;5085242;28;20029;-72
2023/07/29 02:08:30;;;;;;;10.88;7.22;;;563.30;2432.00;;;;;;5077020;28;20119;-71
2023/07/29 02:10:55;;;;;;;11.35;7.75;;;563.30;2432.00;;;;;;5089096;28;20013;-72
2023/07/29 02:13:21;;;;;;;8.85;7.00;;;563.30;2432.00;;;;;;5077320;28;20028;-72
2023/07/29 02:15:47;;;;;;;11.20;7.05;;;563.40;2432.00;;;;;;5077050;28;20024;-71
2023/07/29 02:18:12;;;;;;;12.15;7.60;;;563.30;2432.00;;;;;;5076966;28;20036;-72
2023/07/29 02:20:38;;;;;;;12.25;7.22;;;563.20;2432.00;;;;;;5077044;28;20521;-72
2023/07/29 02:23:04;;;;;;;9.45;6.72;;;538.50;2406.40;;;;;;5076966;28;20032;-72
2023/07/29 02:25:30;;;;;;;11.45;7.30;;;538.40;2406.40;;;;;;5076947;28;20078;-71
2023/07/29 02:27:55;;;;;;;15.05;8.00;;;538.30;2406.40;;;;;;5076713;28;20069;-71
2023/07/29 02:30:21;;;;;;;10.05;7.05;;;538.30;2406.40;;;;;;5076350;28;20051;-71
2023/07/29 02:32:47;;;;;;;8.93;7.68;;;538.30;2406.40;;;;;;5076576;28;20456;-71
2023/07/29 02:35:12;;;;;;;10.75;7.38;;;538.30;2406.40;;;;;;5076644;28;20033;-72
2023/07/29 02:37:38;;;;;;;9.65;7.38;;;538.30;2406.40;;;;;;5076437;28;20080;-72
2023/07/29 02:40:05;;;;;;;12.50;7.78;;;538.30;2406.40;;;;;;5076542;28;20020;-72
2023/07/29 02:42:31;;;;;;;9.80;7.25;;;538.30;2406.40;;;;;;5076403;28;20079;-70
2023/07/29 02:44:57;;;;;;;12.13;7.53;;;538.40;2406.40;;;;;;5076444;28;20494;-71
2023/07/29 02:47:23;;;;;;;9.45;7.47;;;538.40;2406.40;;;;;;5076233;28;20056;-72
2023/07/29 02:49:48;;;;;;;10.52;7.63;;;538.40;2406.40;;;;;;5076402;28;20039;-72
2023/07/29 02:52:14;;;;;;;9.95;6.90;;;538.40;2406.40;;;;;;5076341;28;20024;-72
2023/07/29 02:54:40;;;;;;;11.18;6.50;;;563.20;2432.00;;;;;;5076132;28;20381;-72
2023/07/29 02:57:05;;;;;;;11.07;6.63;;;563.20;2432.00;;;;;;5076300;28;20454;-71
2023/07/29 02:59:31;;;;;;;8.45;6.50;;;563.20;2432.00;;;;;;5076151;28;20378;-71
2023/07/29 03:01:57;;;;;;;11.80;7.07;;;563.20;2432.00;;;;;;5075504;28;20047;-72
2023/07/29 03:04:23;;;;;;;10.23;6.75;;;538.50;2406.40;;;;;;5076126;28;20029;-72
2023/07/29 03:06:49;;;;;;;12.60;6.90;;;538.40;2406.40;;;;;;5075956;28;20496;-71
2023/07/29 03:09:14;;;;;;;12.60;7.68;;;538.30;2406.40;;;;;;5076009;28;20140;-71
2023/07/29 03:11:40;;;;;;;9.00;7.18;;;538.30;2406.40;;;;;;5075855;28;20040;-71
2023/07/29 03:14:06;;;;;;;11.77;7.25;;;538.10;2406.40;;;;;;5075784;28;20025;-73
2023/07/29 03:16:31;;;;;;;10.82;7.57;;;538.10;2406.40;;;;;;5075825;28;20032;-72
2023/07/29 03:18:57;;;;;;;14.35;6.65;;;538.10;2406.40;;;;;;5075809;28;20465;-72
2023/07/29 03:21:23;;;;;;;16.27;7.88;;;538.10;2406.40;;;;;;5075754;28;20017;-72
2023/07/29 03:23:49;;;;;;;12.15;7.22;;;538.00;2406.40;;;;;;5074633;28;20116;-71
2023/07/29 03:26:14;;;;;;;13.23;7.43;;;538.10;2406.40;;;;;;5076183;28;20047;-73
2023/07/29 03:28:41;;;;;;;10.57;6.55;;;538.20;2406.40;;;;;;5075548;28;20036;-72
2023/07/29 03:31:08;;;;;;;9.63;7.13;;;538.10;2406.40;;;;;;5075502;28;20032;-72
2023/07/29 03:33:33;;;;;;;12.00;7.45;;;538.00;2406.40;;;;;;5075615;28;20025;-72
2023/07/29 03:35:59;;;;;;;13.52;7.50;;;537.90;2406.40;;;;;;5075162;28;20530;-71
2023/07/29 03:38:25;;;;;;;10.98;7.07;;;537.90;2406.40;;;;;;5075274;28;20059;-71
2023/07/29 03:40:51;;;;;;;11.35;6.90;;;537.80;2406.40;;;;;;5075474;28;20031;-73
2023/07/29 03:43:17;;;;;;;10.27;6.78;;;537.80;2406.40;;;;;;5075349;28;20036;-72
2023/07/29 03:45:42;;;;;;;12.27;7.40;;;537.70;2406.40;;;;;;5075439;28;20423;-72
2023/07/29 03:48:08;;;;;;;11.65;6.32;;;537.70;2406.40;;;;;;5075119;28;20068;-71
2023/07/29 03:50:35;;;;;;;11.32;6.95;;;537.70;2406.40;;;;;;5075397;28;20494;-72
2023/07/29 03:53:02;;;;;;;12.07;6.57;;;537.70;2406.40;;;;;;5075348;28;20052;-72
2023/07/29 03:55:29;;;;;;;12.40;8.10;;;537.70;2406.40;;;;;;5075117;28;20032;-72
2023/07/29 03:57:56;;;;;;;9.50;7.28;;;537.70;2406.40;;;;;;5075326;28;20347;-72
2023/07/29 04:00:22;;;;;;;16.48;9.45;;;537.90;2406.40;;;;;;5075063;28;20041;-71
2023/07/29 04:02:48;;;;;;;10.73;7.50;;;537.70;2406.40;;;;;;5074758;28;20481;-71
2023/07/29 04:05:13;;;;;;;14.82;9.40;;;537.60;2406.40;;;;;;5075068;28;20028;-72
2023/07/29 04:07:40;;;;;;;12.45;7.72;;;537.70;2406.40;;;;;;5075068;28;20112;-75
2023/07/29 04:10:07;;;;;;;10.80;8.20;;;537.70;2406.40;;;;;;5074778;28;20110;-74
2023/07/29 04:12:32;;;;;;;11.18;8.43;;;537.70;2406.40;;;;;;5074847;28;20028;-72
2023/07/29 04:14:58;;;;;;;11.23;7.93;;;537.70;2406.40;;;;;;5074691;28;20493;-72
2023/07/29 04:17:24;;;;;;;10.65;8.50;;;537.80;2406.40;;;;;;5074437;28;20051;-72
2023/07/29 04:19:49;;;;;;;14.57;8.77;;;538.00;2406.40;;;;;;5074595;28;20021;-72
2023/07/29 04:22:16;;;;;;;15.75;9.07;;;537.80;2406.40;;;;;;5074562;28;20024;-71
2023/07/29 04:24:42;;;;;;;15.30;8.90;;;537.80;2406.40;;;;;;5074531;28;20489;-71
2023/07/29 04:27:08;;;;;;;14.30;8.52;;;538.00;2406.40;;;;;;5074383;28;20096;-71
2023/07/29 04:29:35;;;;;;;15.52;8.05;;;538.10;2406.40;;;;;;5074257;28;20041;-73
2023/07/29 04:32:02;;;;;;;13.95;8.40;;;538.20;2406.40;;;;;;5073712;28;20027;-72
2023/07/29 04:34:28;;;;;;;19.98;10.00;;;538.10;2406.40;;;;;;5074250;28;20044;-72
2023/07/29 04:36:54;;;;;;;15.45;8.82;;;538.10;2406.40;;;;;;5073712;28;20041;-72
2023/07/29 04:39:19;;;;;;;10.80;9.07;;;538.30;2406.40;;;;;;5074303;28;20028;-72
2023/07/29 04:41:45;;;;;;;13.73;8.60;;;538.30;2406.40;;;;;;5074232;28;20478;-73
2023/07/29 04:44:11;;;;;;;12.25;9.18;;;538.40;2406.40;;;;;;5074059;28;20059;-71
2023/07/29 04:46:37;;;;;;;13.82;8.52;;;563.20;2432.00;;;;;;5073959;28;20024;-73
2023/07/29 04:49:03;;;;;;;12.57;9.00;;;563.40;2432.00;;;;;;5073931;28;20032;-72
2023/07/29 04:51:28;;;;;;;18.38;9.27;;;563.50;2432.00;;;;;;5073966;28;20025;-76
2023/07/29 04:53:54;;;;;;;12.20;8.90;;;563.50;2432.00;;;;;;5074024;28;20043;-75
2023/07/29 04:56:20;;;;;;;15.43;8.43;;;563.60;2432.00;;;;;;5073926;28;20355;-73
2023/07/29 04:58:46;;;;;;;13.60;8.88;;;563.60;2432.00;;;;;;5073844;28;20489;-75
2023/07/29 05:01:11;;;;;;;18.88;8.60;;;563.60;2432.00;;;;;;5073423;28;20054;-74
2023/07/29 05:03:39;;;;;;;13.95;9.25;;;563.70;2432.00;;;;;;5073125;28;20032;-72
2023/07/29 05:06:05;;;;;;;13.30;8.60;;;563.70;2432.00;;;;;;5068027;28;20043;-71
2023/07/29 05:08:31;;;;;;;15.57;9.18;;;563.90;2432.00;;;;;;5072952;28;20028;-74
2023/07/29 05:10:57;;;;;;;16.98;8.68;;;563.80;2432.00;;;;;;5072833;28;20036;-74
2023/07/29 05:13:22;;;;;;;12.65;8.35;;;564.00;2432.00;;;;;;5067429;28;20036;-72
2023/07/29 05:15:49;;;;;;;15.35;9.70;;;563.80;2432.00;;;;;;5072872;28;20060;-72
2023/07/29 05:18:16;;;;;;;13.18;8.75;;;563.80;2432.00;;;;;;5072987;28;20032;-71
2023/07/29 05:20:41;;;;;;;15.45;9.65;;;563.80;2432.00;;;;;;5072720;28;20020;-71
2023/07/29 05:23:07;;;;;;;15.35;9.40;;;563.80;2432.00;;;;;;5080579;28;20436;-71
2023/07/29 05:25:36;;;;;;;14.40;9.10;;;564.10;2432.00;;;;;;5074038;28;20025;-71
2023/07/29 05:28:02;;;;;;;11.65;9.07;;;564.10;2432.00;;;;;;5074952;28;20107;-73
2023/07/29 05:30:30;;;;;;;13.02;9.35;;;588.90;2432.00;;;;;;5081350;28;20036;-71
2023/07/29 05:32:57;;;;;;;15.98;9.40;;;588.90;2432.00;;;;;;5077350;28;20020;-71
2023/07/29 05:35:23;;;;;;;11.30;9.05;;;589.00;2432.00;;;;;;5077022;28;20033;-72
2023/07/29 05:37:49;;;;;;;14.48;9.43;;;589.10;2432.00;;;;;;5076691;28;20048;-71
2023/07/29 05:40:15;;;;;;;16.13;8.63;;;589.30;2432.00;;;;;;5083742;28;20024;-72
2023/07/29 05:42:40;;;;;;;16.42;8.52;;;589.30;2432.00;;;;;;5085660;28;20439;-73
2023/07/29 05:45:07;;;;;;;13.93;9.23;;;589.40;2432.00;;;;;;5079964;28;20418;-71
2023/07/29 05:47:33;;;;;;;16.23;8.73;;;589.60;2432.00;;;;;;5078370;28;20114;-71
2023/07/29 05:49:59;;;;;;;15.20;8.70;;;589.50;2432.00;;;;;;5073682;28;20470;-70
2023/07/29 05:52:25;;;;;;;13.68;9.18;;;589.70;2432.00;;;;;;5076253;28;20097;-71
2023/07/29 05:54:51;;;;;;;11.93;8.95;;;614.40;2432.00;;;;;;5074654;28;20470;-71
2023/07/29 05:57:16;;;;;;;14.90;9.35;;;614.50;2432.00;;;;;;5076754;28;20474;-72
2023/07/29 05:59:42;;;;;;;16.50;8.68;;;614.50;2432.00;;;;;;5083623;28;20031;-71
2023/07/29 06:02:08;;;;;;;16.85;9.20;;;614.60;2432.00;;;;;;5079069;28;20032;-72
2023/07/29 06:04:34;;;;;;;17.50;9.27;;;614.50;2432.00;;;;;;5079388;28;20417;-72
2023/07/29 06:07:00;;;;;;;14.60;7.75;;;614.40;2432.00;;;;;;5078463;28;20016;-72
2023/07/29 06:09:25;;;;;;;11.77;8.48;;;614.60;2432.00;;;;;;5076173;28;20074;-73
2023/07/29 06:11:51;;;;;;;13.70;8.95;;;614.70;2432.00;;;;;;5071123;28;20085;-73
2023/07/29 06:14:17;;;;;;;18.80;8.43;;;614.80;2432.00;;;;;;5075868;28;20079;-75
2023/07/29 06:16:43;;;;;;;12.20;8.40;;;614.90;2432.00;;;;;;5080086;28;20024;-74
2023/07/29 06:19:09;;;;;;;16.02;8.32;;;614.80;2432.00;;;;;;5075670;28;20025;-74
2023/07/29 06:21:35;;;;;;;11.85;8.55;;;615.00;2432.00;;;;;;5075515;28;20444;-74
2023/07/29 06:24:01;;;;;;;10.98;8.25;;;615.30;2432.00;;;;;;5074206;28;20043;-72
2023/07/29 06:26:27;;;;;;;9.77;7.72;;;640.00;2432.00;;;;;;5076286;28;20104;-73
2023/07/29 06:28:53;;;;;;;16.77;8.88;;;640.00;2432.00;;;;;;5077340;28;20040;-74
2023/07/29 06:31:20;;;;;;;10.70;7.13;;;640.20;2432.00;;;;;;5076035;28;20543;-73
2023/07/29 06:33:46;;;;;;;11.02;7.88;;;640.20;2432.00;;;;;;5080487;28;20071;-73
2023/07/29 06:36:12;;;;;;;9.93;7.85;;;640.30;2432.00;;;;;;5081926;28;20102;-74
2023/07/29 06:38:38;;;;;;;12.30;7.38;;;640.30;2432.00;;;;;;5074369;28;20113;-75
2023/07/29 06:41:04;;;;;;;11.98;7.38;;;640.40;2432.00;;;;;;5079152;28;20075;-75
2023/07/29 06:43:30;;;;;;;13.77;7.90;;;640.50;2432.00;;;;;;5075529;28;20086;-75
2023/07/29 06:45:56;;;;;;;15.07;7.88;;;640.80;2432.00;;;;;;5080936;28;20063;-73
2023/07/29 06:48:21;;;;;;;9.65;6.50;;;640.90;2432.00;;;;;;5084530;28;20031;-73
2023/07/29 06:50:47;;;;;;;11.27;6.32;;;665.70;2432.00;;;;;;5081249;28;20374;-74
2023/07/29 06:53:13;;;;;;;10.35;6.38;;;665.90;2432.00;;;;;;5083257;28;20035;-75
2023/07/29 06:55:39;;;;;;;9.05;6.97;;;666.00;2432.00;;;;;;5090812;28;20089;-74
2023/07/29 06:58:05;;;;;;;8.40;7.20;;;665.90;2432.00;;;;;;5084356;28;20047;-74
2023/07/29 07:00:30;;;;;;;9.48;6.30;;;665.90;2432.00;;;;;;5082559;28;20506;-73
2023/07/29 07:02:56;;;;;;;9.15;6.45;;;665.90;2432.00;;;;;;5085869;28;20024;-72
2023/07/29 07:05:22;;;;;;;9.50;6.93;;;665.90;2432.00;;;;;;5081316;28;20035;-73
2023/07/29 07:07:47;;;;;;;11.98;6.90;;;666.20;2432.00;;;;;;5084361;28;20523;-73
2023/07/29 07:10:14;;;;;;;10.57;6.22;;;666.50;2432.00;;;;;;5086804;28;20040;-72
2023/07/29 07:12:40;;;;;;;10.85;6.43;;;691.40;2432.00;;;;;;5081569;28;20028;-74
2023/07/29 07:15:06;;;;;;;8.57;5.72;;;691.60;2432.00;;;;;;5080769;28;20028;-73
2023/07/29 07:17:32;;;;;;;7.55;4.88;;;692.00;2432.00;;;;;;5081128;28;20158;-72
2023/07/29 07:19:57;;;;;;;19.73;9.63;;;716.80;2432.00;;;;;;5086446;28;20114;-72
2023/07/29 07:22:23;;;;;;;11.38;5.93;;;716.90;2432.00;;;;;;5077671;28;20031;-73
2023/07/29 07:24:49;;;;;;;9.45;5.28;;;716.80;2380.80;;;;;;5078247;28;20023;-72
2023/07/29 07:27:15;;;;;;;7.45;5.47;;;692.00;2432.00;;;;;;5078739;28;20020;-73
2023/07/29 07:29:40;;;;;;;8.63;5.50;;;716.90;2406.40;;;;;;5080505;28;20044;-72
2023/07/29 07:32:06;;;;;;;12.45;5.28;;;717.00;2380.80;;;;;;5077724;28;20023;-72
2023/07/29 07:34:33;;;;;;;7.97;4.78;;;717.10;2355.20;;;;;;5080706;28;20028;-73
2023/07/29 07:36:58;;;;;;;9.23;4.95;;;716.90;2329.60;;;;;;5077770;28;20552;-73
2023/07/29 07:39:24;;;;;;;9.93;5.03;;;717.40;2329.60;;;;;;5082872;28;20032;-72
2023/07/29 07:41:50;;;;;;;9.52;5.32;;;717.60;2304.00;;;;;;5086023;28;20012;-72
2023/07/29 07:44:17;;;;;;;7.65;5.47;;;717.60;2278.40;;;;;;5090164;28;20530;-73
2023/07/29 07:46:43;;;;;;;11.75;5.45;;;742.40;2252.80;;;;;;5081351;28;20027;-73
2023/07/29 07:49:09;;;;;;;6.10;4.43;;;;;;;;;;5079390;28;20033;-72
2023/07/29 07:51:35;;;;;;;9.90;4.95;;;;;;;;;;5082197;28;20074;-72
2023/07/29 07:54:01;;;;;;;8.93;4.30;;;;;;;;;;5081980;28;20024;-72
2023/07/29 07:56:27;;;;;;;8.32;5.07;;;;;;;;;;5075212;28;20094;-73
2023/07/29 07:58:53;;;;;;;9.98;5.10;;;742.90;2124.80;;;;;;5079346;28;20031;-72
2023/07/29 08:01:19;;;;;;;7.15;4.60;;;742.90;2099.20;;;;;;5076998;28;20028;-75
2023/07/29 08:03:45;;;;;;;10.13;4.95;;;743.20;2124.80;;;;;;5086169;28;20405;-73
2023/07/29 08:06:10;;;;;;;10.75;5.50;;;743.30;2073.60;;;;;;5084924;28;20036;-72
2023/07/29 08:08:36;;;;;;;10.30;4.82;;;768.40;2022.40;;;;;;5079105;28;20381;-73
2023/07/29 08:11:02;;;;;;;9.88;4.80;;;768.80;1945.60;;;;;;5087767;28;20039;-73
2023/07/29 08:13:27;;;;;;;14.98;6.30;;;768.90;1945.60;;;;;;5088613;28;20104;-73
2023/07/29 08:15:53;;;;;;;7.85;4.72;;;793.80;1920.00;;;;;;5079979;28;20386;-75
2023/07/29 08:18:20;;;;;;;10.35;4.88;;;793.60;1945.60;;;;;;5080872;28;20016;-72
2023/07/29 08:20:53;;;;;;;12.85;4.95;;;768.80;1996.80;;;;;;5084194;28;20044;-73
2023/07/29 08:23:18;;;;;;;6.97;4.25;;;768.60;1945.60;;;;;;5083716;28;20031;-73
2023/07/29 08:25:44;;;;;;;7.10;4.50;;;793.70;1920.00;;;;;;5076811;28;20472;-73
2023/07/29 08:28:11;;;;;;;13.93;5.00;;;768.90;1894.40;;;;;;5081438;28;20028;-72
2023/07/29 08:30:37;;;;;;;8.20;4.32;;;;;;;;;;5081762;28;20032;-72
2023/07/29 08:33:02;;;;;;;7.13;4.82;;;794.20;1894.40;;;;;;5070869;28;20086;-74
2023/07/29 08:35:28;;;;;;;7.63;4.38;;;;;;;;;;5083467;28;20029;-74
2023/07/29 08:37:54;;;;;;;7.20;4.32;;;819.30;1843.20;;;;;;5085854;28;20052;-72
2023/07/29 08:40:27;;;;;;;10.43;3.70;;;819.40;1766.40;;;;;;5078141;28;20103;-72
2023/07/29 08:42:54;;;;;;;7.30;4.53;;;819.40;1766.40;;;;;;5077955;28;20017;-74
2023/07/29 08:45:20;;;;;;;7.75;3.53;;;819.30;1792.00;;;;;;5077673;28;20056;-71
2023/07/29 08:47:47;;;;;;;6.30;4.60;;;819.40;1740.80;;;;;;5078898;28;20031;-72
2023/07/29 08:50:14;;;;;;;8.38;4.07;;;819.60;1740.80;;;;;;5079442;28;20042;-71
2023/07/29 08:52:42;;;;;;;8.00;4.80;;;819.80;1715.20;;;;;;5080507;28;20054;-72
2023/07/29 08:55:08;;;;;;;4.88;3.15;;;819.80;1715.20;;;;;;5080453;28;20070;-73
2023/07/29 08:57:35;;;;;;;8.38;3.88;;;845.00;1638.40;;;;;;5082815;28;20493;-72
2023/07/29 09:00:01;;;;;;;6.25;3.67;;;845.20;1638.40;;;;;;5091537;28;20039;-71
2023/07/29 09:02:27;;;;;;;10.05;5.18;;;845.50;1561.60;;;;;;5079738;28;20017;-72
2023/07/29 09:04:53;;;;;;;6.65;4.55;;;845.70;1612.80;;;;;;5082367;28;20043;-72
2023/07/29 09:07:19;;;;;;;32.30;17.58;;;870.50;1612.80;;;;;;5083605;28;20033;-72
2023/07/29 09:09:45;;;;;;;9.38;4.68;;;870.70;1561.60;;;;;;5083580;28;20486;-73
2023/07/29 09:12:11;;;;;;;7.95;3.83;;;845.70;1561.60;;;;;;5080778;28;20039;-74
2023/07/29 09:14:37;;;;;;;29.80;20.23;;;845.00;1561.60;;;;;;5085777;28;20024;-73
2023/07/29 09:17:06;;;;;;;10.10;7.20;;;819.90;1612.80;;;;;;5085384;28;20096;-74
2023/07/29 09:19:34;;;;;;;16.52;7.47;;;819.70;1587.20;;;;;;5074861;28;20030;-73
2023/07/29 09:22:00;;;;;;;17.98;7.82;;;819.90;1561.60;;;;;;5078776;28;20028;-74
2023/07/29 09:24:29;;;;;;;11.00;6.90;;;845.10;1561.60;;;;;;5081595;28;20516;-73
2023/07/29 09:26:55;;;;;;;19.77;11.65;;;845.20;1536.00;;;;;;5068914;28;20100;-74
2023/07/29 09:29:27;;;;;;;6.72;3.80;;;845.50;1536.00;;;;;;5086984;28;20071;-74
2023/07/29 09:31:53;;;;;;;6.57;3.40;;;845.40;1484.80;;;;;;5087037;28;20608;-72
2023/07/29 09:34:18;;;;;;;6.78;3.55;;;845.30;1510.40;;;;;;5079165;28;20118;-76
2023/07/29 09:36:44;;;;;;;7.03;3.60;;;845.00;1484.80;;;;;;5082543;28;20485;-73
2023/07/29 09:39:13;;;;;;;6.80;3.40;;;820.00;1459.20;;;;;;5076540;28;20036;-73
2023/07/29 09:41:38;;;;;;;6.47;2.83;;;844.90;1484.80;;;;;;5075503;28;20020;-72
2023/07/29 09:44:05;;;;;;;6.55;3.38;;;845.20;1433.60;;;;;;5083139;28;20496;-73
2023/07/29 09:46:37;;;;;;;6.15;3.20;;;845.40;1408.00;;;;;;5081791;28;20020;-73
2023/07/29 09:49:05;;;;;;;10.30;3.88;;;845.70;1382.40;;;;;;5077750;28;20078;-73
2023/07/29 09:51:31;;;;;;;8.57;3.80;;;870.50;1356.80;;;;;;5076431;28;20543;-73
2023/07/29 09:53:58;;;;;;;6.25;3.35;;;870.40;1356.80;;;;;;5079690;28;20034;-73
2023/07/29 09:56:29;;;;;;;10.60;3.97;;;845.70;1382.40;;;;;;5079632;28;20071;-74
2023/07/29 09:58:58;;;;;;;8.45;4.28;;;870.50;1356.80;;;;;;5075575;28;20021;-75
2023/07/29 10:01:24;;;;;;;8.23;3.70;;;870.70;1356.80;;;;;;5076041;28;20483;-75
2023/07/29 10:03:50;;;;;;;4.97;3.05;;;870.70;1331.20;;;;;;5077813;28;20024;-74
2023/07/29 10:06:18;;;;;;;6.53;3.05;;;870.90;1280.00;;;;;;5075351;28;20124;-73
2023/07/29 10:08:44;;;;;;;7.53;4.13;;;870.90;1305.60;;;;;;5078724;28;20032;-73
2023/07/29 10:11:10;;;;;;;6.47;3.83;;;871.00;1305.60;;;;;;5078893;28;20051;-72
2023/07/29 10:13:37;;;;;;;8.80;4.00;;;871.10;1305.60;;;;;;5081513;28;20016;-74
2023/07/29 10:16:04;;;;;;;9.35;3.33;;;871.10;1331.20;;;;;;5080428;28;20029;-73
2023/07/29 10:18:31;;;;;;;6.68;3.67;;;871.10;1331.20;;;;;;5077363;28;20032;-73
2023/07/29 10:20:58;;;;;;;8.98;3.53;;;871.30;1280.00;;;;;;5078680;28;20024;-73
2023/07/29 10:23:26;;;;;;;8.38;3.50;;;871.30;1280.00;;;;;;5079868;28;20059;-72
2023/07/29 10:26:05;;;;;;;8.68;3.78;;;871.00;1331.20;;;;;;5079811;28;20036;-72
2023/07/29 10:28:31;;;;;;;9.85;3.88;;;870.80;1331.20;;;;;;5078094;28;20052;-73
2023/07/29 10:30:58;;;;;;;9.02;3.60;;;870.60;1331.20;;;;;;5079847;28;20086;-73
2023/07/29 10:33:24;;;;;;;8.02;3.67;;;871.00;1331.20;;;;;;5081689;28;20527;-72
2023/07/29 10:35:52;;;;;;;11.52;4.38;;;871.00;1331.20;;;;;;5072739;28;20421;-72
2023/07/29 10:38:19;;;;;;;7.07;3.65;;;871.10;1331.20;;;;;;5077948;28;20048;-74
2023/07/29 10:40:47;;;;;;;5.57;3.58;;;870.90;1331.20;;;;;;5082828;28;20803;-72
2023/07/29 10:43:18;;;;;;;7.72;3.90;;;871.20;1305.60;;;;;;5080609;28;20021;-73
2023/07/29 10:45:44;;;;;;;7.72;3.60;;;870.90;1331.20;;;;;;5083136;28;20047;-74
2023/07/29 10:48:33;;;;;;;10.13;3.67;;;871.00;1331.20;;;;;;5087200;28;20055;-73
2023/07/29 10:51:26;;;;;;;6.40;3.63;;;870.90;1305.60;;;;;;5085379;28;20048;-73
2023/07/29 10:53:57;;;;;;;6.93;3.97;;;871.10;1305.60;;;;;;5084487;28;20028;-73
2023/07/29 10:56:34;;;;;;;8.40;3.45;;;896.50;1280.00;;;;;;5077808;28;20024;-73
2023/07/29 10:59:20;;;;;;;6.88;3.70;;;896.60;1254.40;;;;;;5083085;28;20032;-73
2023/07/29 11:01:56;;;;;;;8.85;4.28;;;896.00;1254.40;;;;;;5077520;28;20021;-72
2023/07/29 11:04:27;;;;;;;9.35;4.68;;;896.60;1228.80;;;;;;5082018;28;20039;-73
2023/07/29 11:07:07;;;;;;;5.43;3.28;;;896.90;1254.40;;;;;;5085719;28;20094;-73
2023/07/29 11:10:04;;;;;;;8.10;3.67;;;896.70;1203.20;;;;;;5081922;28;20047;-72
2023/07/29 11:12:52;;;;;;;5.25;3.22;;;896.90;1203.20;;;;;;5032766;28;20077;-74
2023/07/29 11:15:23;;;;;;;5.95;3.83;;;896.80;1228.80;;;;;;5032925;28;20037;-74
2023/07/29 11:17:53;;;;;;;6.88;3.58;;;921.70;1228.80;;;;;;5030520;28;20037;-73
2023/07/29 11:20:23;;;;;;;9.65;3.40;;;;;;;;;;5032853;28;20033;-73
2023/07/29 11:22:49;;;;;;;7.10;3.67;;;922.00;1254.40;;;;;;5032889;28;20171;-74
2023/07/29 11:25:17;;;;;;;5.35;3.45;;;922.00;1203.20;;;;;;5033098;28;20505;-74
2023/07/29 11:27:43;;;;;;;6.50;3.25;;;921.80;1203.20;;;;;;5032881;28;20519;-75
2023/07/29 11:30:15;;;;;;;8.82;3.72;;;896.60;1228.80;;;;;;5032929;28;20041;-74
2023/07/29 11:32:43;;;;;;;7.35;4.15;;;896.90;1228.80;;;;;;5032715;28;20049;-74
2023/07/29 11:35:11;;;;;;;13.38;4.28;;;896.40;1254.40;;;;;;5032487;28;20044;-74
2023/07/29 11:37:38;;;;;;;10.77;4.20;;;896.40;1280.00;;;;;;5032868;28;20056;-72
2023/07/29 11:40:06;;;;;;;6.97;3.60;;;871.30;1305.60;;;;;;5032527;28;20135;-73
2023/07/29 11:42:35;;;;;;;6.82;4.15;;;871.10;1280.00;;;;;;5031934;28;20064;-74
2023/07/29 11:45:03;;;;;;;11.00;3.83;;;871.30;1305.60;;;;;;5032522;28;20037;-73
2023/07/29 11:47:29;;;;;;;7.25;3.58;;;896.30;1305.60;;;;;;5028561;28;20140;-74
2023/07/29 11:49:59;;;;;;;6.93;4.15;;;896.20;1280.00;;;;;;5079288;28;20410;-73
2023/07/29 11:52:25;;;;;;;8.65;4.20;;;896.50;1305.60;;;;;;5079150;28;20024;-73
2023/07/29 11:54:51;;;;;;;8.48;4.20;;;871.10;1331.20;;;;;;5084219;28;20031;-75
2023/07/29 11:57:18;;;;;;;5.63;3.85;;;870.70;1331.20;;;;;;5083107;28;20032;-73
2023/07/29 11:59:44;;;;;;;7.65;4.20;;;870.70;1331.20;;;;;;5083560;28;20017;-73
2023/07/29 12:02:18;;;;;;;7.75;3.92;;;870.90;1331.20;;;;;;5084149;28;20465;-75
2023/07/29 12:04:46;;;;;;;8.20;3.58;;;870.90;1356.80;;;;;;5080160;28;20029;-74
2023/07/29 12:07:14;;;;;;;5.25;3.50;;;871.30;1331.20;;;;;;5086141;28;20032;-73
2023/07/29 12:09:40;;;;;;;9.27;6.85;;;896.50;1305.60;;;;;;5084319;28;20055;-75
2023/07/29 12:12:06;;;;;;;7.72;4.40;;;896.60;1305.60;;;;;;5085531;28;20020;-74
2023/07/29 12:14:33;;;;;;;6.07;4.05;;;896.90;1254.40;;;;;;5078543;28;20031;-74